Time;durP1;ratioP1;P1;durP2;ratioP2;P2;SDS_P1;SDS_P2;PMS_P1;PMS_P2;Temp;Humidity;BMP_temperature;BMP_pressure;BME280_temperature;BME280_humidity;BME280_pressure;Samples;Min_cycle;Max_cycle;Signal;HPM_P1;HPM_P2
2022/11/12 00:00:05;;;;;;;3.30;3.00;;;;;;;;;;5095223;28;20056;-86
2022/11/12 00:02:32;;;;;;;2.78;2.63;;;;;;;;;;5094911;28;20115;-86
2022/11/12 00:04:59;;;;;;;3.47;3.25;;;;;;;;;;5094966;28;20048;-86
2022/11/12 00:07:25;;;;;;;4.68;4.32;;;;;;;;;;5094858;28;20044;-86
2022/11/12 00:09:52;;;;;;;4.85;4.55;;;;;;;;;;5094962;28;20048;-86
2022/11/12 00:12:18;;;;;;;2.80;2.60;;;;;;;;;;5094893;28;20043;-85
2022/11/12 00:14:45;;;;;;;3.22;3.03;;;;;;;;;;5094709;28;20074;-87
2022/11/12 00:17:13;;;;;;;3.95;3.65;;;;;;;;;;5094843;28;20055;-87
2022/11/12 00:19:39;;;;;;;6.40;5.72;;;;;;;;;;5094890;28;20071;-86
2022/11/12 00:22:06;;;;;;;1.83;1.73;;;;;;;;;;5094861;28;20055;-87
2022/11/12 00:24:32;;;;;;;2.35;2.15;;;;;;;;;;5094338;28;20056;-87
2022/11/12 00:26:59;;;;;;;2.58;2.38;;;;;;;;;;5094752;28;20073;-87
2022/11/12 00:29:25;;;;;;;3.42;2.20;;;;;;;;;;5095567;28;20052;-88
2022/11/12 00:31:52;;;;;;;2.47;2.10;;;;;;;;;;5094856;28;20106;-86
2022/11/12 00:34:19;;;;;;;5.10;4.53;;;;;;;;;;5094433;28;20048;-87
2022/11/12 00:36:46;;;;;;;3.35;3.05;;;;;;;;;;5094539;28;20044;-86
2022/11/12 00:39:12;;;;;;;5.25;4.28;;;;;;;;;;5094009;28;20051;-87
2022/11/12 00:41:39;;;;;;;3.10;2.90;;;;;;;;;;5094532;28;20089;-87
2022/11/12 00:44:05;;;;;;;5.28;3.00;;;;;;;;;;5094235;28;20040;-86
2022/11/12 00:46:32;;;;;;;3.38;3.08;;;;;;;;;;5093914;28;20497;-87
2022/11/12 00:48:58;;;;;;;1.88;1.77;;;;;;;;;;5093998;28;20048;-86
2022/11/12 00:51:26;;;;;;;3.75;3.40;;;;;;;;;;5094245;28;20044;-86
2022/11/12 00:53:53;;;;;;;4.13;3.83;;;;;;;;;;5093659;28;20490;-87
2022/11/12 00:56:20;;;;;;;3.88;3.40;;;;;;;;;;5094045;28;20044;-87
2022/11/12 00:58:46;;;;;;;2.90;2.70;;;;;;;;;;5094155;28;20075;-87
2022/11/12 01:01:14;;;;;;;5.80;4.72;;;;;;;;;;5094005;28;20106;-87
2022/11/12 01:03:40;;;;;;;3.65;2.45;;;;;;;;;;5093243;28;20519;-87
2022/11/12 01:06:08;;;;;;;3.28;3.08;;;;;;;;;;5094180;28;20047;-86
2022/11/12 01:08:36;;;;;;;5.50;5.10;;;;;;;;;;5093519;28;20657;-87
2022/11/12 01:11:07;;;;;;;5.22;4.75;;;;;;;;;;5093807;28;20044;-87
2022/11/12 01:13:34;;;;;;;3.03;2.72;;;;;;;;;;5083873;28;20540;-86
2022/11/12 01:16:04;;;;;;;3.47;3.17;;;;;;;;;;5073521;28;20049;-87
2022/11/12 01:18:31;;;;;;;4.72;4.45;;;;;;;;;;5073329;28;20048;-87
2022/11/12 01:21:00;;;;;;;6.43;2.70;;;;;;;;;;5073218;28;20090;-87
2022/11/12 01:23:26;;;;;;;4.25;2.97;;;;;;;;;;5074872;28;20052;-87
2022/11/12 01:25:54;;;;;;;2.88;2.67;;;;;;;;;;5074097;28;20048;-86
2022/11/12 01:28:20;;;;;;;7.72;7.38;;;;;;;;;;5075332;28;20622;-87
2022/11/12 01:30:47;;;;;;;4.15;2.95;;;;;;;;;;5092980;28;20040;-86
2022/11/12 01:33:13;;;;;;;4.47;4.07;;;;;;;;;;5093343;28;20105;-86
2022/11/12 01:35:40;;;;;;;3.33;3.10;;;;;;;;;;5093357;28;20067;-87
2022/11/12 01:38:06;;;;;;;3.75;3.45;;;;;;;;;;5092978;28;20102;-86
2022/11/12 01:40:33;;;;;;;1.98;1.88;;;;;;;;;;5093438;28;20044;-87
2022/11/12 01:43:01;;;;;;;10.45;5.38;;;;;;;;;;5093250;28;20481;-86
2022/11/12 01:45:27;;;;;;;2.95;2.75;;;;;;;;;;5093163;28;20040;-86
2022/11/12 01:47:54;;;;;;;2.17;2.08;;;;;;;;;;5093343;28;20048;-87
2022/11/12 01:50:23;;;;;;;3.35;3.15;;;;;;;;;;5093165;28;20868;-87
2022/11/12 01:52:51;;;;;;;4.60;4.18;;;;;;;;;;5092980;28;20489;-87
2022/11/12 01:55:19;;;;;;;3.20;2.60;;;;;;;;;;5093145;28;20112;-87
2022/11/12 01:57:52;;;;;;;3.80;3.30;;;;;;;;;;5093192;28;20052;-88
2022/11/12 02:00:20;;;;;;;5.07;3.03;;;;;;;;;;5092978;28;20105;-86
2022/11/12 02:02:49;;;;;;;5.40;2.72;;;;;;;;;;5093020;28;20044;-86
2022/11/12 02:05:16;;;;;;;1.80;1.70;;;;;;;;;;5092099;28;20097;-85
2022/11/12 02:07:43;;;;;;;4.30;3.75;;;;;;;;;;5092761;28;20070;-87
2022/11/12 02:10:10;;;;;;;3.72;3.42;;;;;;;;;;5093002;28;20052;-86
2022/11/12 02:15:22;;;;;;;2.88;2.75;;;;;;;;;;5093041;28;20514;-87
2022/11/12 02:17:48;;;;;;;4.68;4.35;;;;;;;;;;5092828;28;20101;-87
2022/11/12 02:20:15;;;;;;;9.43;3.35;;;;;;;;;;5095441;28;20048;-87
2022/11/12 02:22:43;;;;;;;2.70;2.47;;;;;;;;;;5092687;28;20117;-87
2022/11/12 02:25:11;;;;;;;2.72;2.53;;;;;;;;;;5092647;28;20048;-87
2022/11/12 02:27:37;;;;;;;2.03;1.92;;;;;;;;;;5092615;28;20044;-87
2022/11/12 02:30:04;;;;;;;1.92;1.83;;;;;;;;;;5093036;28;20101;-87
2022/11/12 02:32:31;;;;;;;2.22;2.08;;;;;;;;;;5092629;28;20048;-87
2022/11/12 02:34:57;;;;;;;3.55;3.25;;;;;;;;;;5085844;28;20041;-86
2022/11/12 02:37:24;;;;;;;3.20;3.00;;;;;;;;;;5072485;28;20442;-86
2022/11/12 02:39:52;;;;;;;3.92;3.72;;;;;;;;;;5072705;28;20056;-86
2022/11/12 02:42:18;;;;;;;2.55;2.40;;;;;;;;;;5072051;28;20513;-87
2022/11/12 02:44:45;;;;;;;3.47;3.13;;;;;;;;;;5072169;28;20502;-87
2022/11/12 02:47:11;;;;;;;3.10;2.85;;;;;;;;;;5072361;28;20114;-86
2022/11/12 02:49:38;;;;;;;2.25;2.15;;;;;;;;;;5071993;28;20049;-86
2022/11/12 02:52:05;;;;;;;3.92;3.63;;;;;;;;;;5072561;28;20049;-86
2022/11/12 02:54:31;;;;;;;4.15;3.30;;;;;;;;;;5072405;28;20102;-87
2022/11/12 02:56:59;;;;;;;1.60;1.50;;;;;;;;;;5072287;28;20378;-86
2022/11/12 02:59:25;;;;;;;6.15;3.70;;;;;;;;;;5072060;28;20498;-86
2022/11/12 03:01:52;;;;;;;3.10;2.90;;;;;;;;;;5072344;28;20052;-86
2022/11/12 03:04:18;;;;;;;1.48;1.38;;;;;;;;;;5072094;28;20049;-86
2022/11/12 03:06:45;;;;;;;4.07;2.38;;;;;;;;;;5072422;28;20044;-86
2022/11/12 03:09:12;;;;;;;1.63;1.52;;;;;;;;;;5072382;28;20110;-86
2022/11/12 03:11:38;;;;;;;2.92;2.72;;;;;;;;;;5072214;28;20053;-86
2022/11/12 03:14:06;;;;;;;2.42;2.22;;;;;;;;;;5088102;28;20048;-86
2022/11/12 03:16:32;;;;;;;2.08;1.95;;;;;;;;;;5093125;28;20055;-86
2022/11/12 03:18:59;;;;;;;3.70;3.50;;;;;;;;;;5095792;28;20048;-86
2022/11/12 03:21:26;;;;;;;3.72;2.63;;;;;;;;;;5095707;28;20052;-86
2022/11/12 03:23:52;;;;;;;2.30;2.15;;;;;;;;;;5095811;28;20059;-89
2022/11/12 03:26:19;;;;;;;4.97;4.57;;;;;;;;;;5096135;28;20122;-88
2022/11/12 03:28:45;;;;;;;3.95;3.70;;;;;;;;;;5096146;28;20047;-87
2022/11/12 03:31:13;;;;;;;2.35;2.25;;;;;;;;;;5095636;28;20061;-87
2022/11/12 03:33:39;;;;;;;4.18;3.88;;;;;;;;;;5095811;28;20485;-88
2022/11/12 03:36:06;;;;;;;2.33;2.15;;;;;;;;;;5095735;28;20052;-88
2022/11/12 03:38:33;;;;;;;4.72;1.92;;;;;;;;;;5096026;28;20047;-89
2022/11/12 03:40:59;;;;;;;2.42;2.28;;;;;;;;;;5095123;28;20477;-87
2022/11/12 03:43:26;;;;;;;2.25;1.75;;;;;;;;;;5075659;28;20588;-87
2022/11/12 03:45:52;;;;;;;0.98;0.93;;;;;;;;;;5075430;28;20485;-87
2022/11/12 03:48:20;;;;;;;1.90;1.80;;;;;;;;;;5075115;28;20094;-87
2022/11/12 03:50:47;;;;;;;3.13;2.92;;;;;;;;;;5074746;28;20052;-87
2022/11/12 03:53:13;;;;;;;5.20;2.75;;;;;;;;;;5075173;28;20098;-87
2022/11/12 03:55:40;;;;;;;2.20;2.10;;;;;;;;;;5074940;28;20051;-87
2022/11/12 03:58:07;;;;;;;2.30;2.03;;;;;;;;;;5075076;28;20048;-87
2022/11/12 04:00:34;;;;;;;2.05;1.95;;;;;;;;;;5075291;28;20044;-87
2022/11/12 04:03:00;;;;;;;3.58;2.55;;;;;;;;;;5075176;28;20489;-86
2022/11/12 04:10:57;;;;;;;0.60;0.60;;;;;;;;;;5074730;28;20137;-86
2022/11/12 04:13:28;;;;;;;1.90;1.80;;;;;;;;;;5074946;28;20110;-87
2022/11/12 04:26:21;;;;;;;2.03;1.52;;;;;;;;;;5074390;28;20055;-86
2022/11/12 04:26:55;;;;;;;1.35;1.25;;;;;;;;;;5074075;28;20044;-86
2022/11/12 04:32:05;;;;;;;2.47;1.95;;;;;;;;;;5074472;28;20166;-86
2022/11/12 04:34:33;;;;;;;1.80;1.70;;;;;;;;;;5074458;28;20133;-86
2022/11/12 04:37:01;;;;;;;1.85;1.75;;;;;;;;;;5074363;28;20158;-87
2022/11/12 04:39:28;;;;;;;2.10;1.90;;;;;;;;;;5074137;28;20106;-87
2022/11/12 04:47:22;;;;;;;3.13;1.90;;;;;;;;;;5094534;28;20062;-89
2022/11/12 04:49:48;;;;;;;1.27;1.20;;;;;;;;;;5094231;28;20067;-87
2022/11/12 04:52:16;;;;;;;3.00;2.85;;;;;;;;;;5094367;28;20044;-87
2022/11/12 04:54:43;;;;;;;1.17;1.08;;;;;;;;;;5094252;28;20105;-86
2022/11/12 04:57:09;;;;;;;1.23;1.13;;;;;;;;;;5094358;28;20044;-86
2022/11/12 04:59:36;;;;;;;2.63;2.53;;;;;;;;;;5094131;28;20488;-88
2022/11/12 05:02:02;;;;;;;3.25;2.47;;;;;;;;;;5096018;28;20047;-89
2022/11/12 05:04:29;;;;;;;2.67;2.45;;;;;;;;;;5094754;28;20044;-88
2022/11/12 05:06:55;;;;;;;3.05;2.90;;;;;;;;;;5094089;28;20044;-88
2022/11/12 05:09:25;;;;;;;1.98;1.88;;;;;;;;;;5093751;28;20051;-88
2022/11/12 05:11:51;;;;;;;2.67;2.58;;;;;;;;;;5093721;28;20055;-86
2022/11/12 05:14:18;;;;;;;1.85;1.75;;;;;;;;;;5093900;28;20493;-86
2022/11/12 05:16:45;;;;;;;2.03;1.92;;;;;;;;;;5081198;28;20048;-87
2022/11/12 05:19:11;;;;;;;1.15;1.15;;;;;;;;;;5073705;28;20117;-87
2022/11/12 05:24:21;;;;;;;3.13;2.83;;;;;;;;;;5073193;28;20097;-87
2022/11/12 05:26:49;;;;;;;4.18;3.97;;;;;;;;;;5073568;28;20476;-85
2022/11/12 05:29:16;;;;;;;2.88;2.67;;;;;;;;;;5073260;28;20049;-86
2022/11/12 05:31:42;;;;;;;3.55;3.30;;;;;;;;;;5073135;28;20121;-86
2022/11/12 05:34:11;;;;;;;1.92;1.52;;;;;;;;;;5073462;28;20060;-87
2022/11/12 05:36:38;;;;;;;1.75;1.65;;;;;;;;;;5073281;28;20387;-87
2022/11/12 05:39:05;;;;;;;4.78;3.22;;;;;;;;;;5072233;28;20044;-87
2022/11/12 05:41:31;;;;;;;2.47;2.38;;;;;;;;;;5073779;28;20517;-88
2022/11/12 05:43:59;;;;;;;3.50;2.35;;;;;;;;;;5073334;28;20048;-85
2022/11/12 05:46:26;;;;;;;1.42;1.33;;;;;;;;;;5073397;28;20052;-85
2022/11/12 05:48:52;;;;;;;1.40;1.30;;;;;;;;;;5085827;28;20064;-85
2022/11/12 05:51:19;;;;;;;3.63;3.42;;;;;;;;;;5092953;28;20097;-86
2022/11/12 05:53:45;;;;;;;1.55;1.45;;;;;;;;;;5092968;28;20443;-84
2022/11/12 05:56:12;;;;;;;2.85;2.65;;;;;;;;;;5094042;28;20048;-83
2022/11/12 05:58:38;;;;;;;1.83;1.73;;;;;;;;;;5094514;28;20044;-85
2022/11/12 06:01:06;;;;;;;3.67;3.33;;;;;;;;;;5093036;28;20040;-85
2022/11/12 06:03:33;;;;;;;3.65;3.45;;;;;;;;;;5092997;28;20497;-86
2022/11/12 06:06:00;;;;;;;4.03;3.63;;;;;;;;;;5092994;28;20052;-84
2022/11/12 06:08:26;;;;;;;3.92;3.53;;;;;;;;;;5093812;28;20044;-84
2022/11/12 06:10:54;;;;;;;2.72;2.53;;;;;;;;;;5095315;28;20098;-85
2022/11/12 06:13:20;;;;;;;3.47;3.17;;;;;;;;;;5094619;28;20047;-86
2022/11/12 06:15:47;;;;;;;5.78;3.53;;;;;;;;;;5093040;28;20055;-87
2022/11/12 06:18:15;;;;;;;3.60;3.25;;;;;;;;;;5092899;28;20416;-85
2022/11/12 06:20:42;;;;;;;4.18;2.50;;;;;;;;;;5088422;28;20078;-85
2022/11/12 06:23:08;;;;;;;6.32;2.20;;;;;;;;;;5084816;28;20048;-87
2022/11/12 06:25:35;;;;;;;3.40;3.13;;;;;;;;;;5092719;28;20048;-85
2022/11/12 06:28:01;;;;;;;3.00;2.80;;;;;;;;;;5092754;28;20052;-87
2022/11/12 06:30:28;;;;;;;2.72;2.53;;;;;;;;;;5092492;28;20048;-87
2022/11/12 06:32:54;;;;;;;2.72;2.47;;;;;;;;;;5092462;28;20052;-87
2022/11/12 06:35:22;;;;;;;3.72;3.40;;;;;;;;;;5092656;28;20105;-85
2022/11/12 06:37:49;;;;;;;4.93;4.43;;;;;;;;;;5092496;28;20455;-83
2022/11/12 06:40:16;;;;;;;4.82;4.43;;;;;;;;;;5091910;28;20454;-86
2022/11/12 06:42:42;;;;;;;2.75;2.55;;;;;;;;;;5080036;28;20463;-84
2022/11/12 06:45:09;;;;;;;4.68;4.38;;;;;;;;;;5082531;28;20044;-84
2022/11/12 06:47:36;;;;;;;3.13;2.92;;;;;;;;;;5092145;28;20052;-87
2022/11/12 06:50:03;;;;;;;5.88;5.32;;;;;;;;;;5092293;28;20098;-85
2022/11/12 06:52:31;;;;;;;12.77;4.97;;;;;;;;;;5097878;28;20489;-84
2022/11/12 06:54:57;;;;;;;7.07;5.18;;;;;;;;;;5090325;28;20622;-84
2022/11/12 06:57:24;;;;;;;7.28;6.65;;;;;;;;;;5092021;28;20397;-88
2022/11/12 06:59:50;;;;;;;5.25;4.75;;;;;;;;;;5095672;28;20498;-84
2022/11/12 07:02:17;;;;;;;6.07;4.70;;;;;;;;;;5095825;28;20523;-86
2022/11/12 07:04:43;;;;;;;5.32;4.35;;;;;;;;;;5096065;28;20105;-85
2022/11/12 07:07:10;;;;;;;5.07;4.47;;;;;;;;;;5096009;28;20071;-84
2022/11/12 07:09:38;;;;;;;3.17;2.97;;;;;;;;;;5095794;28;20055;-85
2022/11/12 07:12:04;;;;;;;7.13;5.38;;;;;;;;;;5093966;28;20044;-86
2022/11/12 07:14:31;;;;;;;4.00;3.67;;;;;;;;;;5095526;28;20052;-85
2022/11/12 07:16:57;;;;;;;4.38;3.67;;;;;;;;;;5095704;28;20052;-85
2022/11/12 07:19:24;;;;;;;3.53;3.22;;;;;;;;;;5095543;28;20390;-86
2022/11/12 07:21:50;;;;;;;2.90;2.70;;;;;;;;;;5095944;28;20056;-85
2022/11/12 07:24:17;;;;;;;7.47;6.03;;;;;;;;;;5095393;28;20052;-85
2022/11/12 07:26:45;;;;;;;6.03;5.63;;;;;;;;;;5096231;28;20047;-87
2022/11/12 07:29:11;;;;;;;5.30;4.82;;;;;;;;;;5080513;28;20132;-86
2022/11/12 07:31:38;;;;;;;4.40;3.45;;;;;;;;;;5075515;28;20053;-85
2022/11/12 07:34:04;;;;;;;4.13;3.83;;;;;;;;;;5075333;28;20555;-86
2022/11/12 07:36:31;;;;;;;4.68;4.22;;;;;;;;;;5095652;28;20490;-87
2022/11/12 07:38:58;;;;;;;5.68;4.00;;;;;;;;;;5095244;28;20044;-88
2022/11/12 07:41:25;;;;;;;4.50;4.18;;;;;;;;;;5095934;28;20120;-88
2022/11/12 07:43:53;;;;;;;7.47;4.97;;;;;;;;;;5096584;28;20048;-88
2022/11/12 07:46:20;;;;;;;6.05;3.95;;;;;;;;;;5096703;28;20086;-89
2022/11/12 07:48:47;;;;;;;2.75;2.65;;;;;;;;;;5095884;28;20409;-89
2022/11/12 07:51:15;;;;;;;2.67;2.47;;;;;;;;;;5095960;28;20047;-89
2022/11/12 07:53:42;;;;;;;3.72;3.47;;;;;;;;;;5095223;28;20048;-88
2022/11/12 07:56:10;;;;;;;4.38;3.10;;;;;;;;;;5095789;28;20112;-89
2022/11/12 07:58:37;;;;;;;4.22;3.83;;;;;;;;;;5095503;28;20048;-88
2022/11/12 08:01:19;;;;;;;4.47;4.00;;;;;;;;;;5095250;28;20051;-88
2022/11/12 08:03:46;;;;;;;5.40;4.55;;;;;;;;;;5094215;28;20048;-88
2022/11/12 08:06:12;;;;;;;4.75;3.92;;;;;;;;;;5095304;28;20052;-88
2022/11/12 08:08:39;;;;;;;4.43;4.10;;;;;;;;;;5095019;28;20048;-89
2022/11/12 08:11:05;;;;;;;4.38;4.07;;;;;;;;;;5095325;28;20044;-88
2022/11/12 08:13:32;;;;;;;4.72;3.10;;;;;;;;;;5095806;28;20048;-88
2022/11/12 08:15:59;;;;;;;3.13;2.92;;;;;;;;;;5095543;28;20508;-87
2022/11/12 08:18:27;;;;;;;3.72;3.35;;;;;;;;;;5095310;28;20044;-88
2022/11/12 08:20:59;;;;;;;5.03;3.55;;;;;;;;;;5095264;28;20052;-88
2022/11/12 08:23:25;;;;;;;4.43;3.10;;;;;;;;;;5095269;28;20394;-88
2022/11/12 08:25:52;;;;;;;6.50;4.63;;;;;;;;;;5095098;28;20051;-89
2022/11/12 08:28:18;;;;;;;4.53;3.70;;;;;;;;;;5095198;28;20047;-88
2022/11/12 08:30:45;;;;;;;5.35;3.78;;;;;;;;;;5094762;28;20101;-89
2022/11/12 08:33:11;;;;;;;2.42;2.33;;;;;;;;;;5092855;28;20044;-87
2022/11/12 08:35:39;;;;;;;6.13;5.72;;;;;;;;;;5083025;28;20051;-88
2022/11/12 08:38:06;;;;;;;4.03;3.72;;;;;;;;;;5095519;28;20044;-88
2022/11/12 08:40:33;;;;;;;8.25;4.82;;;;;;;;;;5096053;28;20136;-89
2022/11/12 08:43:00;;;;;;;2.72;2.53;;;;;;;;;;5094957;28;20048;-88
2022/11/12 08:45:27;;;;;;;3.75;3.53;;;;;;;;;;5095395;28;20040;-88
2022/11/12 08:47:58;;;;;;;5.43;3.17;;;;;;;;;;5094902;28;20055;-88
2022/11/12 08:50:25;;;;;;;7.20;4.72;;;;;;;;;;5094686;28;20687;-88
2022/11/12 08:52:52;;;;;;;6.65;3.83;;;;;;;;;;5094845;28;20048;-88
2022/11/12 08:55:19;;;;;;;6.60;3.67;;;;;;;;;;5094109;28;20540;-89
2022/11/12 08:57:45;;;;;;;2.78;2.58;;;;;;;;;;5094576;28;20056;-87
2022/11/12 09:00:13;;;;;;;3.45;3.25;;;;;;;;;;5094295;28;20393;-88
2022/11/12 09:02:39;;;;;;;2.45;2.25;;;;;;;;;;5094463;28;20059;-87
2022/11/12 09:05:06;;;;;;;3.88;3.50;;;;;;;;;;5094188;28;20044;-87
2022/11/12 09:07:33;;;;;;;3.92;3.45;;;;;;;;;;5093047;28;20052;-88
2022/11/12 09:10:01;;;;;;;3.90;3.53;;;;;;;;;;5073672;28;20047;-88
2022/11/12 09:12:27;;;;;;;2.05;1.75;;;;;;;;;;5073609;28;20048;-88
2022/11/12 09:14:55;;;;;;;2.92;2.70;;;;;;;;;;5073627;28;20094;-89
2022/11/12 09:17:21;;;;;;;3.70;3.40;;;;;;;;;;5073707;28;20402;-89
2022/11/12 09:19:48;;;;;;;3.65;3.35;;;;;;;;;;5073877;28;20040;-89
2022/11/12 09:22:14;;;;;;;3.45;3.22;;;;;;;;;;5073774;28;20063;-87
2022/11/12 09:24:41;;;;;;;2.75;2.25;;;;;;;;;;5073403;28;20055;-87
2022/11/12 09:27:09;;;;;;;7.30;2.72;;;;;;;;;;5088100;28;20051;-88
2022/11/12 09:29:35;;;;;;;3.92;3.72;;;;;;;;;;5094397;28;20051;-88
2022/11/12 09:32:02;;;;;;;4.47;3.47;;;;;;;;;;5093585;28;20064;-87
2022/11/12 09:34:28;;;;;;;3.97;3.38;;;;;;;;;;5095580;28;20413;-87
2022/11/12 09:36:55;;;;;;;3.97;3.67;;;;;;;;;;5094766;28;20048;-86
2022/11/12 09:39:21;;;;;;;6.63;6.30;;;;;;;;;;5094233;28;20436;-89
2022/11/12 09:41:48;;;;;;;4.00;3.80;;;;;;;;;;5093637;28;20417;-88
2022/11/12 09:44:17;;;;;;;2.22;2.13;;;;;;;;;;5093878;28;20409;-88
2022/11/12 09:46:46;;;;;;;3.80;3.63;;;;;;;;;;5094188;28;20463;-89
2022/11/12 09:49:14;;;;;;;3.50;3.22;;;;;;;;;;5092603;28;20105;-87
2022/11/12 09:51:42;;;;;;;3.85;2.70;;;;;;;;;;5092970;28;20048;-87
2022/11/12 09:54:14;;;;;;;3.10;3.00;;;;;;;;;;5093040;28;20101;-87
2022/11/12 09:56:42;;;;;;;3.05;2.85;;;;;;;;;;5092867;28;20052;-87
2022/11/12 09:59:11;;;;;;;2.53;2.42;;;;;;;;;;5092428;28;20463;-86
2022/11/12 10:01:42;;;;;;;2.40;2.30;;;;;;;;;;5092868;28;20056;-87
2022/11/12 10:04:18;;;;;;;4.43;4.22;;;;;;;;;;5092830;28;20386;-87
2022/11/12 10:06:48;;;;;;;2.78;2.58;;;;;;;;;;5092536;28;20485;-86
2022/11/12 10:09:17;;;;;;;2.30;1.85;;;;;;;;;;5092739;28;20055;-86
2022/11/12 10:14:58;;;;;;;2.35;2.25;;;;;;;;;;5081749;28;20051;-86
2022/11/12 10:17:28;;;;;;;2.53;2.40;;;;;;;;;;5092055;28;20056;-87
2022/11/12 10:20:00;;;;;;;1.75;1.65;;;;;;;;;;5092367;28;20489;-86
2022/11/12 10:22:33;;;;;;;5.57;2.35;;;;;;;;;;5092858;28;20048;-86
2022/11/12 10:24:59;;;;;;;1.52;1.42;;;;;;;;;;5092617;28;20056;-86
2022/11/12 10:27:28;;;;;;;1.95;1.85;;;;;;;;;;5097709;28;20044;-86
2022/11/12 10:29:58;;;;;;;4.65;4.45;;;;;;;;;;5097409;28;20048;-86
2022/11/12 10:32:25;;;;;;;1.00;1.00;;;;;;;;;;5096419;28;20055;-88
2022/11/12 10:34:53;;;;;;;2.05;1.95;;;;;;;;;;5096794;28;20059;-87
2022/11/12 10:37:22;;;;;;;1.80;1.70;;;;;;;;;;5096705;28;20052;-87
2022/11/12 10:39:49;;;;;;;3.85;3.65;;;;;;;;;;5096788;28;20408;-88
2022/11/12 10:42:16;;;;;;;1.92;1.80;;;;;;;;;;5096749;28;20044;-88
2022/11/12 10:44:43;;;;;;;3.33;3.13;;;;;;;;;;5096821;28;20469;-87
2022/11/12 10:47:30;;;;;;;1.75;1.65;;;;;;;;;;5096544;28;20073;-90
2022/11/12 10:50:10;;;;;;;4.25;4.05;;;;;;;;;;5091321;28;20060;-87
2022/11/12 10:52:37;;;;;;;1.73;1.63;;;;;;;;;;5096520;28;20040;-89
2022/11/12 10:55:05;;;;;;;1.85;1.75;;;;;;;;;;5096418;28;20044;-88
2022/11/12 10:57:32;;;;;;;1.83;1.73;;;;;;;;;;5096533;28;20102;-89
2022/11/12 11:00:09;;;;;;;1.20;1.13;;;;;;;;;;5096033;28;20732;-88
2022/11/12 11:02:36;;;;;;;1.08;1.08;;;;;;;;;;5096151;28;20404;-88
2022/11/12 11:05:17;;;;;;;1.60;1.50;;;;;;;;;;5096320;28;20056;-89
2022/11/12 11:07:49;;;;;;;8.70;2.40;;;;;;;;;;5095735;28;20425;-88
2022/11/12 11:10:22;;;;;;;1.95;1.85;;;;;;;;;;5096469;28;20051;-89
2022/11/12 11:12:49;;;;;;;2.45;2.25;;;;;;;;;;5096813;28;20101;-89
2022/11/12 11:15:19;;;;;;;3.40;3.30;;;;;;;;;;5096513;28;20055;-89
2022/11/12 11:17:46;;;;;;;2.50;2.40;;;;;;;;;;5096097;28;20546;-88
2022/11/12 11:20:17;;;;;;;6.65;6.30;;;;;;;;;;5095985;28;20485;-90
2022/11/12 11:22:45;;;;;;;2.28;2.17;;;;;;;;;;5098019;28;20136;-89
2022/11/12 11:25:18;;;;;;;2.58;2.42;;;;;;;;;;5096470;28;20040;-88
2022/11/12 11:27:49;;;;;;;1.50;1.40;;;;;;;;;;5095651;28;20059;-88
2022/11/12 11:30:18;;;;;;;2.75;2.55;;;;;;;;;;5096256;28;20055;-88
2022/11/12 11:33:05;;;;;;;1.90;1.77;;;;;;;;;;5096334;28;20109;-89
2022/11/12 11:35:37;;;;;;;2.20;2.10;;;;;;;;;;5090568;28;20048;-89
2022/11/12 11:38:11;;;;;;;1.83;1.73;;;;;;;;;;5094658;28;20044;-89
2022/11/12 11:40:40;;;;;;;3.28;3.05;;;;;;;;;;5095986;28;20040;-90
2022/11/12 11:43:17;;;;;;;2.13;2.03;;;;;;;;;;5099294;28;20047;-89
2022/11/12 11:45:52;;;;;;;2.90;2.80;;;;;;;;;;5096132;28;20056;-90
2022/11/12 11:48:24;;;;;;;2.42;2.33;;;;;;;;;;5090838;28;20052;-89
2022/11/12 11:50:56;;;;;;;2.30;2.20;;;;;;;;;;5076531;28;20053;-90
2022/11/12 11:53:26;;;;;;;2.38;2.28;;;;;;;;;;5075788;28;20057;-88
2022/11/12 11:55:54;;;;;;;2.38;2.28;;;;;;;;;;5074909;28;20056;-88
2022/11/12 11:58:47;;;;;;;2.13;2.03;;;;;;;;;;5075228;28;20056;-89
2022/11/12 12:01:19;;;;;;;2.30;2.20;;;;;;;;;;5013173;28;20136;-88
2022/11/12 12:03:52;;;;;;;1.77;1.67;;;;;;;;;;5013082;28;20058;-88
2022/11/12 12:06:20;;;;;;;7.47;7.13;;;;;;;;;;5013948;28;20057;-88
2022/11/12 12:08:58;;;;;;;7.32;7.03;;;;;;;;;;5013981;28;20085;-89
2022/11/12 12:11:27;;;;;;;5.03;4.82;;;;;;;;;;5013459;28;20496;-89
2022/11/12 12:14:03;;;;;;;2.70;2.58;;;;;;;;;;5013288;28;20046;-90
2022/11/12 12:16:34;;;;;;;2.55;2.45;;;;;;;;;;5014988;28;20061;-90
2022/11/12 12:19:04;;;;;;;3.05;2.95;;;;;;;;;;5013832;28;20056;-89
2022/11/12 12:21:33;;;;;;;8.32;7.93;;;;;;;;;;5013170;28;20049;-89
2022/11/12 12:24:02;;;;;;;2.97;2.78;;;;;;;;;;5012297;28;20050;-89
2022/11/12 12:26:30;;;;;;;2.60;2.50;;;;;;;;;;5013137;28;20046;-88
2022/11/12 12:29:00;;;;;;;4.20;4.00;;;;;;;;;;5012783;28;20056;-89
2022/11/12 12:31:29;;;;;;;2.83;2.55;;;;;;;;;;5012277;28;20041;-89
2022/11/12 12:33:57;;;;;;;7.53;7.00;;;;;;;;;;5012899;28;20054;-89
2022/11/12 12:36:25;;;;;;;2.90;2.70;;;;;;;;;;5028037;28;20048;-90
2022/11/12 12:38:53;;;;;;;2.38;2.28;;;;;;;;;;5074042;28;20053;-89
2022/11/12 12:41:26;;;;;;;3.92;3.72;;;;;;;;;;5074011;28;20108;-89
2022/11/12 12:43:55;;;;;;;3.10;2.92;;;;;;;;;;5074115;28;20056;-89
2022/11/12 12:46:23;;;;;;;6.88;6.57;;;;;;;;;;5074126;28;20045;-89
2022/11/12 12:48:52;;;;;;;13.23;9.38;;;;;;;;;;5072957;28;20501;-88
2022/11/12 12:51:19;;;;;;;13.50;10.20;;;;;;;;;;5074250;28;20452;-88
2022/11/12 12:53:46;;;;;;;8.50;8.10;;;;;;;;;;5074101;28;20049;-90
2022/11/12 12:56:30;;;;;;;7.90;7.47;;;;;;;;;;5074147;28;20053;-88
2022/11/12 12:59:02;;;;;;;2.28;2.17;;;;;;;;;;5063254;28;20537;-88
2022/11/12 13:01:30;;;;;;;2.75;2.65;;;;;;;;;;5073197;28;20041;-88
2022/11/12 13:03:58;;;;;;;6.40;6.00;;;;;;;;;;5073216;28;20640;-88
2022/11/12 13:06:29;;;;;;;3.60;3.40;;;;;;;;;;5073582;28;20485;-88
2022/11/12 13:08:55;;;;;;;;;;;;;;;;;;5073783;28;20048;-88
2022/11/12 13:14:50;;;;;;;6.72;6.43;;;;;;;;;;5011669;28;20057;-88
2022/11/12 13:17:41;;;;;;;3.33;2.97;;;;;;;;;;5011306;28;20057;-88
2022/11/12 13:20:38;;;;;;;3.72;3.10;;;;;;;;;;5010574;28;20045;-87
2022/11/12 13:23:25;;;;;;;7.28;6.97;;;;;;;;;;5011441;28;20499;-88
2022/11/12 13:25:51;;;;;;;6.32;5.47;;;;;;;;;;4995175;28;20042;-88
2022/11/12 13:28:18;;;;;;;8.07;7.68;;;;;;;;;;5011115;28;20054;-88
2022/11/12 13:31:00;;;;;;;3.00;2.80;;;;;;;;;;5011210;28;20050;-88
2022/11/12 13:33:29;;;;;;;4.45;4.22;;;;;;;;;;5011242;28;20049;-87
2022/11/12 13:36:10;;;;;;;3.70;3.40;;;;;;;;;;5011310;28;20053;-88
2022/11/12 13:38:37;;;;;;;7.95;7.47;;;;;;;;;;5010625;28;20062;-87
2022/11/12 13:41:07;;;;;;;9.05;8.55;;;;;;;;;;5011132;28;20132;-88
2022/11/12 13:43:36;;;;;;;4.65;4.25;;;;;;;;;;5011039;28;20053;-88
2022/11/12 13:46:17;;;;;;;8.55;7.93;;;;;;;;;;5013220;28;20169;-87
2022/11/12 13:48:46;;;;;;;4.75;4.43;;;;;;;;;;5048281;28;20051;-88
2022/11/12 13:51:15;;;;;;;2.92;2.80;;;;;;;;;;5074781;28;20052;-88
2022/11/12 13:53:41;;;;;;;3.85;3.72;;;;;;;;;;5073318;28;20482;-87
2022/11/12 13:56:09;;;;;;;1.80;1.70;;;;;;;;;;5073056;28;20079;-86
2022/11/12 13:58:36;;;;;;;2.28;2.17;;;;;;;;;;5072954;28;20052;-85
2022/11/12 14:01:03;;;;;;;2.67;2.55;;;;;;;;;;5072444;28;20048;-85
2022/11/12 14:03:32;;;;;;;2.97;2.75;;;;;;;;;;5072598;28;20448;-84
2022/11/12 14:06:05;;;;;;;3.08;2.88;;;;;;;;;;5074869;28;20052;-85
2022/11/12 14:08:50;;;;;;;1.88;1.77;;;;;;;;;;5074044;28;20049;-86
2022/11/12 14:11:23;;;;;;;3.78;3.20;;;;;;;;;;5073598;28;20053;-87
2022/11/12 14:13:55;;;;;;;6.85;3.88;;;;;;;;;;5073898;28;20090;-86
2022/11/12 14:16:31;;;;;;;3.45;3.25;;;;;;;;;;5072526;28;20049;-87
2022/11/12 14:19:17;;;;;;;7.88;7.47;;;;;;;;;;5071860;28;20044;-87
2022/11/12 14:21:58;;;;;;;4.18;3.88;;;;;;;;;;5072461;28;20106;-87
2022/11/12 14:24:25;;;;;;;2.42;2.25;;;;;;;;;;5072658;28;20052;-87
2022/11/12 14:26:52;;;;;;;2.10;2.00;;;;;;;;;;5072517;28;20045;-87
2022/11/12 14:29:18;;;;;;;2.30;2.10;;;;;;;;;;5072017;28;20048;-87
2022/11/12 14:31:45;;;;;;;1.83;1.73;;;;;;;;;;5072692;28;20048;-86
2022/11/12 14:34:22;;;;;;;3.30;2.97;;;;;;;;;;5072363;28;20060;-86
2022/11/12 14:36:49;;;;;;;1.75;1.50;;;;;;;;;;5072213;28;20048;-86
2022/11/12 14:39:17;;;;;;;6.03;5.82;;;;;;;;;;5072361;28;20045;-86
2022/11/12 14:41:46;;;;;;;1.98;1.88;;;;;;;;;;5072059;28;20040;-86
2022/11/12 14:44:16;;;;;;;2.97;2.22;;;;;;;;;;5072139;28;20056;-86
2022/11/12 14:46:45;;;;;;;3.47;2.88;;;;;;;;;;5072512;28;20044;-86
2022/11/12 14:49:15;;;;;;;2.72;2.55;;;;;;;;;;5071550;28;20473;-86
2022/11/12 14:51:43;;;;;;;2.65;2.55;;;;;;;;;;5071830;28;20083;-85
2022/11/12 14:54:14;;;;;;;1.90;1.80;;;;;;;;;;5072212;28;20045;-86
2022/11/12 14:56:43;;;;;;;1.90;1.75;;;;;;;;;;5071889;28;20044;-85
2022/11/12 14:59:11;;;;;;;4.25;3.95;;;;;;;;;;5071760;28;20048;-86
2022/11/12 15:01:38;;;;;;;2.10;1.98;;;;;;;;;;5074082;28;20056;-86
2022/11/12 15:04:16;;;;;;;4.20;3.92;;;;;;;;;;5071778;28;20044;-87
2022/11/12 15:06:42;;;;;;;4.65;4.38;;;;;;;;;;5088907;28;20116;-87
2022/11/12 15:09:09;;;;;;;2.10;2.00;;;;;;;;;;5092167;28;20051;-87
2022/11/12 15:11:37;;;;;;;1.80;1.70;;;;;;;;;;5092624;28;20477;-88
2022/11/12 15:14:05;;;;;;;6.05;5.60;;;;;;;;;;5095900;28;20048;-87
2022/11/12 15:16:33;;;;;;;1.92;1.70;;;;;;;;;;5095880;28;20105;-87
2022/11/12 15:19:16;;;;;;;3.55;2.35;;;;;;;;;;5095645;28;20044;-87
2022/11/12 15:21:44;;;;;;;1.75;1.65;;;;;;;;;;5095600;28;20048;-87
2022/11/12 15:24:16;;;;;;;1.27;1.17;;;;;;;;;;5095996;28;20109;-87